sensor_id;sensor_type;location;lat;lon;timestamp;P1;durP1;ratioP1;P2;durP2;ratioP2
39044;SDS011;52192;52.002;5.956;2023-01-08T00:01:41;1.38;;;0.85;;
39044;SDS011;52192;52.002;5.956;2023-01-08T00:04:07;1.27;;;0.85;;
39044;SDS011;52192;52.002;5.956;2023-01-08T00:06:32;1.35;;;0.98;;
39044;SDS011;52192;52.002;5.956;2023-01-08T00:08:58;1.05;;;0.98;;
39044;SDS011;52192;52.002;5.956;2023-01-08T00:11:24;2.05;;;1.20;;
39044;SDS011;52192;52.002;5.956;2023-01-08T00:13:50;1.85;;;1.15;;
39044;SDS011;52192;52.002;5.956;2023-01-08T00:16:16;2.03;;;1.17;;
39044;SDS011;52192;52.002;5.956;2023-01-08T00:18:42;1.73;;;1.05;;
39044;SDS011;52192;52.002;5.956;2023-01-08T00:21:09;1.50;;;1.20;;
39044;SDS011;52192;52.002;5.956;2023-01-08T00:23:35;1.80;;;1.25;;
39044;SDS011;52192;52.002;5.956;2023-01-08T00:26:05;1.40;;;1.08;;
39044;SDS011;52192;52.002;5.956;2023-01-08T00:28:32;1.35;;;1.25;;
39044;SDS011;52192;52.002;5.956;2023-01-08T00:30:58;3.17;;;1.08;;
39044;SDS011;52192;52.002;5.956;2023-01-08T00:33:25;1.52;;;1.02;;
39044;SDS011;52192;52.002;5.956;2023-01-08T00:35:51;2.67;;;1.10;;
39044;SDS011;52192;52.002;5.956;2023-01-08T00:38:16;0.98;;;0.98;;
39044;SDS011;52192;52.002;5.956;2023-01-08T00:40:42;0.90;;;0.82;;
39044;SDS011;52192;52.002;5.956;2023-01-08T00:43:08;1.10;;;0.75;;
39044;SDS011;52192;52.002;5.956;2023-01-08T00:45:33;3.30;;;1.10;;
39044;SDS011;52192;52.002;5.956;2023-01-08T00:47:59;2.78;;;1.10;;
39044;SDS011;52192;52.002;5.956;2023-01-08T00:50:25;1.80;;;0.82;;
39044;SDS011;52192;52.002;5.956;2023-01-08T00:52:51;2.22;;;1.10;;
39044;SDS011;52192;52.002;5.956;2023-01-08T00:55:17;1.63;;;1.15;;
39044;SDS011;52192;52.002;5.956;2023-01-08T00:57:43;0.88;;;0.88;;
39044;SDS011;52192;52.002;5.956;2023-01-08T01:00:10;1.88;;;1.02;;
39044;SDS011;52192;52.002;5.956;2023-01-08T01:02:39;2.17;;;1.35;;
39044;SDS011;52192;52.002;5.956;2023-01-08T01:05:05;3.83;;;1.38;;
39044;SDS011;52192;52.002;5.956;2023-01-08T01:07:33;2.72;;;1.30;;
39044;SDS011;52192;52.002;5.956;2023-01-08T01:09:59;2.70;;;1.17;;
39044;SDS011;52192;52.002;5.956;2023-01-08T01:12:25;2.03;;;1.10;;
39044;SDS011;52192;52.002;5.956;2023-01-08T01:14:51;3.70;;;1.52;;
39044;SDS011;52192;52.002;5.956;2023-01-08T01:17:16;5.32;;;2.00;;
39044;SDS011;52192;52.002;5.956;2023-01-08T01:19:42;1.13;;;1.05;;
39044;SDS011;52192;52.002;5.956;2023-01-08T01:22:08;6.93;;;1.20;;
39044;SDS011;52192;52.002;5.956;2023-01-08T01:24:33;4.88;;;1.10;;
39044;SDS011;52192;52.002;5.956;2023-01-08T01:26:59;5.93;;;1.52;;
39044;SDS011;52192;52.002;5.956;2023-01-08T01:29:25;1.88;;;1.48;;
39044;SDS011;52192;52.002;5.956;2023-01-08T01:31:51;1.92;;;1.00;;
39044;SDS011;52192;52.002;5.956;2023-01-08T01:34:16;2.17;;;1.40;;
39044;SDS011;52192;52.002;5.956;2023-01-08T01:36:42;1.23;;;0.90;;
39044;SDS011;52192;52.002;5.956;2023-01-08T01:39:08;2.55;;;0.90;;
39044;SDS011;52192;52.002;5.956;2023-01-08T01:41:39;2.30;;;1.48;;
39044;SDS011;52192;52.002;5.956;2023-01-08T01:47:13;1.65;;;1.10;;
39044;SDS011;52192;52.002;5.956;2023-01-08T01:49:41;3.80;;;1.35;;
39044;SDS011;52192;52.002;5.956;2023-01-08T01:52:12;1.70;;;1.27;;
39044;SDS011;52192;52.002;5.956;2023-01-08T01:54:38;1.58;;;1.17;;
39044;SDS011;52192;52.002;5.956;2023-01-08T01:57:04;2.47;;;1.00;;
39044;SDS011;52192;52.002;5.956;2023-01-08T01:59:32;1.23;;;0.80;;
39044;SDS011;52192;52.002;5.956;2023-01-08T02:01:58;2.35;;;1.02;;
39044;SDS011;52192;52.002;5.956;2023-01-08T02:04:24;0.80;;;0.80;;
39044;SDS011;52192;52.002;5.956;2023-01-08T02:07:00;1.60;;;0.98;;
39044;SDS011;52192;52.002;5.956;2023-01-08T02:09:51;1.73;;;1.02;;
39044;SDS011;52192;52.002;5.956;2023-01-08T02:14:59;2.28;;;0.93;;
39044;SDS011;52192;52.002;5.956;2023-01-08T02:17:42;0.82;;;0.82;;
39044;SDS011;52192;52.002;5.956;2023-01-08T02:20:31;3.08;;;1.38;;
39044;SDS011;52192;52.002;5.956;2023-01-08T02:26:07;1.90;;;1.13;;
39044;SDS011;52192;52.002;5.956;2023-01-08T02:31:33;2.07;;;0.97;;
39044;SDS011;52192;52.002;5.956;2023-01-08T02:34:02;0.90;;;0.65;;
39044;SDS011;52192;52.002;5.956;2023-01-08T02:36:33;0.95;;;0.68;;
39044;SDS011;52192;52.002;5.956;2023-01-08T02:39:06;1.92;;;1.10;;
39044;SDS011;52192;52.002;5.956;2023-01-08T02:42:15;1.50;;;0.88;;
39044;SDS011;52192;52.002;5.956;2023-01-08T02:47:22;0.70;;;0.70;;
39044;SDS011;52192;52.002;5.956;2023-01-08T02:55:36;1.98;;;1.00;;
39044;SDS011;52192;52.002;5.956;2023-01-08T02:58:04;3.30;;;1.60;;
39044;SDS011;52192;52.002;5.956;2023-01-08T03:00:30;1.65;;;1.17;;
39044;SDS011;52192;52.002;5.956;2023-01-08T03:03:00;2.80;;;1.20;;
39044;SDS011;52192;52.002;5.956;2023-01-08T03:05:31;1.33;;;1.08;;
39044;SDS011;52192;52.002;5.956;2023-01-08T03:07:58;1.20;;;0.70;;
39044;SDS011;52192;52.002;5.956;2023-01-08T03:10:25;1.13;;;0.80;;
39044;SDS011;52192;52.002;5.956;2023-01-08T03:13:16;6.47;;;1.17;;
39044;SDS011;52192;52.002;5.956;2023-01-08T03:15:49;2.28;;;0.73;;
39044;SDS011;52192;52.002;5.956;2023-01-08T03:18:20;3.63;;;0.88;;
39044;SDS011;52192;52.002;5.956;2023-01-08T03:20:50;2.60;;;1.08;;
39044;SDS011;52192;52.002;5.956;2023-01-08T03:23:16;1.13;;;0.70;;
39044;SDS011;52192;52.002;5.956;2023-01-08T03:25:44;6.97;;;1.27;;
39044;SDS011;52192;52.002;5.956;2023-01-08T03:28:19;2.25;;;0.98;;
39044;SDS011;52192;52.002;5.956;2023-01-08T03:30:49;4.47;;;1.13;;
39044;SDS011;52192;52.002;5.956;2023-01-08T03:33:17;0.93;;;0.90;;
39044;SDS011;52192;52.002;5.956;2023-01-08T03:35:46;0.38;;;0.30;;
39044;SDS011;52192;52.002;5.956;2023-01-08T03:38:25;0.35;;;0.32;;
39044;SDS011;52192;52.002;5.956;2023-01-08T03:40:59;0.50;;;0.50;;
39044;SDS011;52192;52.002;5.956;2023-01-08T03:43:43;0.70;;;0.30;;
39044;SDS011;52192;52.002;5.956;2023-01-08T03:46:11;0.30;;;0.30;;
39044;SDS011;52192;52.002;5.956;2023-01-08T03:48:40;2.47;;;0.80;;
39044;SDS011;52192;52.002;5.956;2023-01-08T03:51:08;1.23;;;0.55;;
39044;SDS011;52192;52.002;5.956;2023-01-08T03:53:34;0.77;;;0.50;;
39044;SDS011;52192;52.002;5.956;2023-01-08T03:56:00;0.65;;;0.20;;
39044;SDS011;52192;52.002;5.956;2023-01-08T03:58:25;1.33;;;0.63;;
39044;SDS011;52192;52.002;5.956;2023-01-08T04:00:51;1.25;;;0.50;;
39044;SDS011;52192;52.002;5.956;2023-01-08T04:03:17;2.50;;;0.30;;
39044;SDS011;52192;52.002;5.956;2023-01-08T04:05:43;2.78;;;0.50;;
39044;SDS011;52192;52.002;5.956;2023-01-08T04:08:09;1.27;;;0.52;;
39044;SDS011;52192;52.002;5.956;2023-01-08T04:10:35;1.23;;;0.40;;
39044;SDS011;52192;52.002;5.956;2023-01-08T04:13:00;3.95;;;0.77;;
39044;SDS011;52192;52.002;5.956;2023-01-08T04:15:26;0.55;;;0.30;;
39044;SDS011;52192;52.002;5.956;2023-01-08T04:17:52;0.20;;;0.20;;
39044;SDS011;52192;52.002;5.956;2023-01-08T04:20:18;2.88;;;0.40;;
39044;SDS011;52192;52.002;5.956;2023-01-08T04:22:43;1.08;;;0.73;;
39044;SDS011;52192;52.002;5.956;2023-01-08T04:25:09;2.08;;;0.47;;
39044;SDS011;52192;52.002;5.956;2023-01-08T04:27:35;0.75;;;0.50;;
39044;SDS011;52192;52.002;5.956;2023-01-08T04:30:01;0.50;;;0.40;;
39044;SDS011;52192;52.002;5.956;2023-01-08T04:32:27;1.20;;;0.70;;
39044;SDS011;52192;52.002;5.956;2023-01-08T04:34:53;0.73;;;0.40;;
39044;SDS011;52192;52.002;5.956;2023-01-08T04:37:19;0.57;;;0.40;;
39044;SDS011;52192;52.002;5.956;2023-01-08T04:39:44;0.30;;;0.30;;
39044;SDS011;52192;52.002;5.956;2023-01-08T04:42:10;0.55;;;0.55;;
39044;SDS011;52192;52.002;5.956;2023-01-08T04:44:36;1.17;;;0.60;;
39044;SDS011;52192;52.002;5.956;2023-01-08T04:47:01;0.80;;;0.52;;
39044;SDS011;52192;52.002;5.956;2023-01-08T04:49:27;4.47;;;1.05;;
39044;SDS011;52192;52.002;5.956;2023-01-08T04:51:53;1.17;;;0.80;;
39044;SDS011;52192;52.002;5.956;2023-01-08T04:54:18;1.15;;;0.43;;
39044;SDS011;52192;52.002;5.956;2023-01-08T04:56:44;1.50;;;1.08;;
39044;SDS011;52192;52.002;5.956;2023-01-08T04:59:10;0.65;;;0.60;;
39044;SDS011;52192;52.002;5.956;2023-01-08T05:01:35;3.72;;;0.68;;
39044;SDS011;52192;52.002;5.956;2023-01-08T05:04:03;0.65;;;0.60;;
39044;SDS011;52192;52.002;5.956;2023-01-08T05:06:30;1.00;;;0.60;;
39044;SDS011;52192;52.002;5.956;2023-01-08T05:08:56;1.55;;;0.75;;
39044;SDS011;52192;52.002;5.956;2023-01-08T05:11:23;0.98;;;0.73;;
39044;SDS011;52192;52.002;5.956;2023-01-08T05:13:49;0.47;;;0.47;;
39044;SDS011;52192;52.002;5.956;2023-01-08T05:16:16;0.95;;;0.40;;
39044;SDS011;52192;52.002;5.956;2023-01-08T05:18:42;2.08;;;0.30;;
39044;SDS011;52192;52.002;5.956;2023-01-08T05:21:08;0.38;;;0.32;;
39044;SDS011;52192;52.002;5.956;2023-01-08T05:23:34;1.75;;;0.50;;
39044;SDS011;52192;52.002;5.956;2023-01-08T05:26:01;2.13;;;0.57;;
39044;SDS011;52192;52.002;5.956;2023-01-08T05:28:28;1.15;;;0.50;;
39044;SDS011;52192;52.002;5.956;2023-01-08T05:30:55;0.30;;;0.30;;
39044;SDS011;52192;52.002;5.956;2023-01-08T05:33:21;2.25;;;0.55;;
39044;SDS011;52192;52.002;5.956;2023-01-08T05:35:47;3.53;;;0.70;;
39044;SDS011;52192;52.002;5.956;2023-01-08T05:38:13;2.00;;;1.25;;
39044;SDS011;52192;52.002;5.956;2023-01-08T05:40:39;1.63;;;0.93;;
39044;SDS011;52192;52.002;5.956;2023-01-08T05:43:05;3.17;;;0.65;;
39044;SDS011;52192;52.002;5.956;2023-01-08T05:45:31;1.90;;;1.10;;
39044;SDS011;52192;52.002;5.956;2023-01-08T05:47:57;0.70;;;0.60;;
39044;SDS011;52192;52.002;5.956;2023-01-08T05:50:23;1.35;;;0.75;;
39044;SDS011;52192;52.002;5.956;2023-01-08T05:52:49;1.83;;;0.90;;
39044;SDS011;52192;52.002;5.956;2023-01-08T05:55:14;4.28;;;1.08;;
39044;SDS011;52192;52.002;5.956;2023-01-08T05:57:40;1.05;;;0.75;;
39044;SDS011;52192;52.002;5.956;2023-01-08T06:00:06;1.20;;;1.08;;
39044;SDS011;52192;52.002;5.956;2023-01-08T06:02:34;0.70;;;0.60;;
39044;SDS011;52192;52.002;5.956;2023-01-08T06:04:59;0.32;;;0.32;;
39044;SDS011;52192;52.002;5.956;2023-01-08T06:07:27;0.32;;;0.32;;
39044;SDS011;52192;52.002;5.956;2023-01-08T06:09:53;0.80;;;0.50;;
39044;SDS011;52192;52.002;5.956;2023-01-08T06:12:18;3.67;;;0.85;;
39044;SDS011;52192;52.002;5.956;2023-01-08T06:14:44;0.40;;;0.38;;
39044;SDS011;52192;52.002;5.956;2023-01-08T06:17:10;1.85;;;0.63;;
39044;SDS011;52192;52.002;5.956;2023-01-08T06:19:36;0.63;;;0.63;;
39044;SDS011;52192;52.002;5.956;2023-01-08T06:22:03;0.75;;;0.50;;
39044;SDS011;52192;52.002;5.956;2023-01-08T06:24:29;1.15;;;0.40;;
39044;SDS011;52192;52.002;5.956;2023-01-08T06:26:55;0.60;;;0.52;;
39044;SDS011;52192;52.002;5.956;2023-01-08T06:29:21;0.50;;;0.40;;
39044;SDS011;52192;52.002;5.956;2023-01-08T06:31:46;0.55;;;0.40;;
39044;SDS011;52192;52.002;5.956;2023-01-08T06:34:12;1.65;;;0.60;;
39044;SDS011;52192;52.002;5.956;2023-01-08T06:36:38;1.17;;;0.60;;
39044;SDS011;52192;52.002;5.956;2023-01-08T06:39:04;0.38;;;0.30;;
39044;SDS011;52192;52.002;5.956;2023-01-08T06:41:31;0.50;;;0.50;;
39044;SDS011;52192;52.002;5.956;2023-01-08T06:43:56;1.08;;;0.43;;
39044;SDS011;52192;52.002;5.956;2023-01-08T06:46:22;0.43;;;0.40;;
39044;SDS011;52192;52.002;5.956;2023-01-08T06:48:47;1.20;;;0.47;;
39044;SDS011;52192;52.002;5.956;2023-01-08T06:51:13;0.80;;;0.57;;
39044;SDS011;52192;52.002;5.956;2023-01-08T06:53:39;1.58;;;0.50;;
39044;SDS011;52192;52.002;5.956;2023-01-08T06:56:05;0.35;;;0.30;;
39044;SDS011;52192;52.002;5.956;2023-01-08T06:58:33;2.75;;;0.40;;
39044;SDS011;52192;52.002;5.956;2023-01-08T07:00:59;1.60;;;0.80;;
39044;SDS011;52192;52.002;5.956;2023-01-08T07:03:25;0.40;;;0.38;;
39044;SDS011;52192;52.002;5.956;2023-01-08T07:05:51;1.30;;;0.45;;
39044;SDS011;52192;52.002;5.956;2023-01-08T07:08:17;1.10;;;0.43;;
39044;SDS011;52192;52.002;5.956;2023-01-08T07:10:43;1.25;;;0.60;;
39044;SDS011;52192;52.002;5.956;2023-01-08T07:13:09;2.25;;;0.50;;
39044;SDS011;52192;52.002;5.956;2023-01-08T07:15:36;0.45;;;0.40;;
39044;SDS011;52192;52.002;5.956;2023-01-08T07:18:03;1.85;;;0.77;;
39044;SDS011;52192;52.002;5.956;2023-01-08T07:20:31;1.23;;;0.55;;
39044;SDS011;52192;52.002;5.956;2023-01-08T07:23:01;2.13;;;0.55;;
39044;SDS011;52192;52.002;5.956;2023-01-08T07:25:31;0.52;;;0.50;;
39044;SDS011;52192;52.002;5.956;2023-01-08T07:27:57;1.08;;;0.73;;
39044;SDS011;52192;52.002;5.956;2023-01-08T07:30:23;0.65;;;0.63;;
39044;SDS011;52192;52.002;5.956;2023-01-08T07:32:49;0.88;;;0.68;;
39044;SDS011;52192;52.002;5.956;2023-01-08T07:35:15;1.27;;;0.38;;
39044;SDS011;52192;52.002;5.956;2023-01-08T07:37:41;2.85;;;0.90;;
39044;SDS011;52192;52.002;5.956;2023-01-08T07:40:08;3.80;;;0.63;;
39044;SDS011;52192;52.002;5.956;2023-01-08T07:42:34;3.38;;;0.80;;
39044;SDS011;52192;52.002;5.956;2023-01-08T07:45:00;2.70;;;0.80;;
39044;SDS011;52192;52.002;5.956;2023-01-08T07:47:26;1.10;;;0.55;;
39044;SDS011;52192;52.002;5.956;2023-01-08T07:49:52;1.77;;;0.73;;
39044;SDS011;52192;52.002;5.956;2023-01-08T07:52:18;0.95;;;0.43;;
39044;SDS011;52192;52.002;5.956;2023-01-08T07:54:43;0.60;;;0.32;;
39044;SDS011;52192;52.002;5.956;2023-01-08T07:57:09;1.27;;;0.63;;
39044;SDS011;52192;52.002;5.956;2023-01-08T07:59:34;1.83;;;0.80;;
39044;SDS011;52192;52.002;5.956;2023-01-08T08:02:00;2.78;;;0.80;;
39044;SDS011;52192;52.002;5.956;2023-01-08T08:04:26;1.05;;;0.65;;
39044;SDS011;52192;52.002;5.956;2023-01-08T08:06:52;2.45;;;0.70;;
39044;SDS011;52192;52.002;5.956;2023-01-08T08:09:18;2.88;;;0.35;;
39044;SDS011;52192;52.002;5.956;2023-01-08T08:11:44;1.55;;;0.57;;
39044;SDS011;52192;52.002;5.956;2023-01-08T08:14:10;1.05;;;0.65;;
39044;SDS011;52192;52.002;5.956;2023-01-08T08:16:36;1.98;;;0.60;;
39044;SDS011;52192;52.002;5.956;2023-01-08T08:19:02;1.05;;;0.68;;
39044;SDS011;52192;52.002;5.956;2023-01-08T08:21:27;1.33;;;0.70;;
39044;SDS011;52192;52.002;5.956;2023-01-08T08:23:54;2.25;;;0.95;;
39044;SDS011;52192;52.002;5.956;2023-01-08T08:26:20;1.08;;;0.73;;
39044;SDS011;52192;52.002;5.956;2023-01-08T08:28:45;1.17;;;0.95;;
39044;SDS011;52192;52.002;5.956;2023-01-08T08:31:11;2.65;;;1.25;;
39044;SDS011;52192;52.002;5.956;2023-01-08T08:33:37;0.63;;;0.60;;
39044;SDS011;52192;52.002;5.956;2023-01-08T08:36:03;2.25;;;0.75;;
39044;SDS011;52192;52.002;5.956;2023-01-08T08:38:29;1.27;;;0.77;;
39044;SDS011;52192;52.002;5.956;2023-01-08T08:40:55;2.95;;;0.85;;
39044;SDS011;52192;52.002;5.956;2023-01-08T08:43:20;0.88;;;0.82;;
39044;SDS011;52192;52.002;5.956;2023-01-08T08:45:46;1.42;;;0.73;;
39044;SDS011;52192;52.002;5.956;2023-01-08T08:48:12;3.13;;;1.25;;
39044;SDS011;52192;52.002;5.956;2023-01-08T08:50:37;2.08;;;1.17;;
39044;SDS011;52192;52.002;5.956;2023-01-08T08:53:04;1.20;;;0.70;;
39044;SDS011;52192;52.002;5.956;2023-01-08T08:55:30;2.97;;;0.60;;
39044;SDS011;52192;52.002;5.956;2023-01-08T08:58:06;2.33;;;0.80;;
39044;SDS011;52192;52.002;5.956;2023-01-08T09:00:40;2.65;;;0.30;;
39044;SDS011;52192;52.002;5.956;2023-01-08T09:03:13;4.18;;;0.75;;
39044;SDS011;52192;52.002;5.956;2023-01-08T09:05:40;2.35;;;1.17;;
39044;SDS011;52192;52.002;5.956;2023-01-08T09:08:07;1.42;;;0.60;;
39044;SDS011;52192;52.002;5.956;2023-01-08T09:10:33;2.47;;;1.00;;
39044;SDS011;52192;52.002;5.956;2023-01-08T09:13:01;2.95;;;0.65;;
39044;SDS011;52192;52.002;5.956;2023-01-08T09:15:26;3.45;;;1.38;;
39044;SDS011;52192;52.002;5.956;2023-01-08T09:17:53;4.80;;;0.95;;
39044;SDS011;52192;52.002;5.956;2023-01-08T09:20:19;4.60;;;0.73;;
39044;SDS011;52192;52.002;5.956;2023-01-08T09:22:45;1.63;;;0.73;;
39044;SDS011;52192;52.002;5.956;2023-01-08T09:25:11;1.88;;;0.82;;
39044;SDS011;52192;52.002;5.956;2023-01-08T09:27:37;1.95;;;0.80;;
39044;SDS011;52192;52.002;5.956;2023-01-08T09:30:03;1.30;;;0.63;;
39044;SDS011;52192;52.002;5.956;2023-01-08T09:32:29;3.92;;;0.85;;
39044;SDS011;52192;52.002;5.956;2023-01-08T09:34:55;1.67;;;0.52;;
39044;SDS011;52192;52.002;5.956;2023-01-08T09:37:20;1.13;;;0.93;;
39044;SDS011;52192;52.002;5.956;2023-01-08T09:39:47;1.73;;;0.52;;
39044;SDS011;52192;52.002;5.956;2023-01-08T09:42:14;2.00;;;1.10;;
39044;SDS011;52192;52.002;5.956;2023-01-08T09:44:42;14.00;;;1.40;;
39044;SDS011;52192;52.002;5.956;2023-01-08T09:47:17;1.45;;;0.90;;
39044;SDS011;52192;52.002;5.956;2023-01-08T09:49:50;2.83;;;0.82;;
39044;SDS011;52192;52.002;5.956;2023-01-08T09:52:18;1.00;;;0.80;;
39044;SDS011;52192;52.002;5.956;2023-01-08T09:54:44;2.15;;;1.02;;
39044;SDS011;52192;52.002;5.956;2023-01-08T09:57:12;3.25;;;1.17;;
39044;SDS011;52192;52.002;5.956;2023-01-08T09:59:40;1.95;;;1.13;;
39044;SDS011;52192;52.002;5.956;2023-01-08T10:02:19;5.00;;;0.82;;
39044;SDS011;52192;52.002;5.956;2023-01-08T10:04:57;9.02;;;1.88;;
39044;SDS011;52192;52.002;5.956;2023-01-08T10:07:25;3.60;;;1.30;;
39044;SDS011;52192;52.002;5.956;2023-01-08T10:09:52;5.45;;;1.45;;
39044;SDS011;52192;52.002;5.956;2023-01-08T10:12:23;4.20;;;0.98;;
39044;SDS011;52192;52.002;5.956;2023-01-08T10:14:54;1.63;;;0.60;;
39044;SDS011;52192;52.002;5.956;2023-01-08T10:17:37;2.08;;;0.73;;
39044;SDS011;52192;52.002;5.956;2023-01-08T10:22:40;3.00;;;1.33;;
39044;SDS011;52192;52.002;5.956;2023-01-08T10:25:08;7.10;;;0.95;;
39044;SDS011;52192;52.002;5.956;2023-01-08T10:30:13;0.73;;;0.73;;
39044;SDS011;52192;52.002;5.956;2023-01-08T10:32:45;1.92;;;1.10;;
39044;SDS011;52192;52.002;5.956;2023-01-08T10:35:15;2.80;;;1.15;;
39044;SDS011;52192;52.002;5.956;2023-01-08T10:37:43;4.78;;;1.50;;
39044;SDS011;52192;52.002;5.956;2023-01-08T10:43:04;9.00;;;1.58;;
39044;SDS011;52192;52.002;5.956;2023-01-08T10:45:37;1.63;;;0.95;;
39044;SDS011;52192;52.002;5.956;2023-01-08T10:48:03;2.78;;;0.88;;
39044;SDS011;52192;52.002;5.956;2023-01-08T10:50:31;2.33;;;1.45;;
39044;SDS011;52192;52.002;5.956;2023-01-08T10:52:59;3.22;;;1.13;;
39044;SDS011;52192;52.002;5.956;2023-01-08T10:55:28;3.13;;;1.55;;
39044;SDS011;52192;52.002;5.956;2023-01-08T10:58:00;3.92;;;1.52;;
39044;SDS011;52192;52.002;5.956;2023-01-08T11:00:28;2.22;;;1.02;;
39044;SDS011;52192;52.002;5.956;2023-01-08T11:02:59;2.75;;;0.82;;
39044;SDS011;52192;52.002;5.956;2023-01-08T11:05:37;3.03;;;1.55;;
39044;SDS011;52192;52.002;5.956;2023-01-08T11:08:11;2.85;;;1.30;;
39044;SDS011;52192;52.002;5.956;2023-01-08T11:10:40;2.50;;;1.10;;
39044;SDS011;52192;52.002;5.956;2023-01-08T11:13:06;7.15;;;1.42;;
39044;SDS011;52192;52.002;5.956;2023-01-08T11:15:36;1.92;;;0.90;;
39044;SDS011;52192;52.002;5.956;2023-01-08T11:18:05;2.03;;;1.10;;
39044;SDS011;52192;52.002;5.956;2023-01-08T11:20:52;3.17;;;1.05;;
39044;SDS011;52192;52.002;5.956;2023-01-08T11:23:30;1.55;;;0.80;;
39044;SDS011;52192;52.002;5.956;2023-01-08T11:26:00;1.13;;;0.90;;
39044;SDS011;52192;52.002;5.956;2023-01-08T11:28:51;8.48;;;1.10;;
39044;SDS011;52192;52.002;5.956;2023-01-08T11:31:35;6.07;;;0.70;;
39044;SDS011;52192;52.002;5.956;2023-01-08T11:34:13;2.25;;;0.73;;
39044;SDS011;52192;52.002;5.956;2023-01-08T11:36:51;1.38;;;0.80;;
39044;SDS011;52192;52.002;5.956;2023-01-08T11:39:23;2.05;;;0.77;;
39044;SDS011;52192;52.002;5.956;2023-01-08T11:47:23;4.70;;;1.17;;
39044;SDS011;52192;52.002;5.956;2023-01-08T11:49:56;2.88;;;1.67;;
39044;SDS011;52192;52.002;5.956;2023-01-08T11:55:29;2.00;;;0.90;;
39044;SDS011;52192;52.002;5.956;2023-01-08T12:03:48;2.22;;;0.85;;
39044;SDS011;52192;52.002;5.956;2023-01-08T12:06:40;1.40;;;0.55;;
39044;SDS011;52192;52.002;5.956;2023-01-08T12:25:52;0.40;;;0.40;;
39044;SDS011;52192;52.002;5.956;2023-01-08T12:33:55;0.98;;;0.50;;
39044;SDS011;52192;52.002;5.956;2023-01-08T12:36:35;1.55;;;0.50;;
39044;SDS011;52192;52.002;5.956;2023-01-08T12:39:27;0.50;;;0.50;;
39044;SDS011;52192;52.002;5.956;2023-01-08T12:42:02;0.40;;;0.40;;
39044;SDS011;52192;52.002;5.956;2023-01-08T12:44:34;0.73;;;0.55;;
39044;SDS011;52192;52.002;5.956;2023-01-08T12:47:02;0.57;;;0.30;;
39044;SDS011;52192;52.002;5.956;2023-01-08T12:49:41;1.08;;;0.50;;
39044;SDS011;52192;52.002;5.956;2023-01-08T12:52:21;2.65;;;0.40;;
39044;SDS011;52192;52.002;5.956;2023-01-08T12:55:05;0.40;;;0.40;;
39044;SDS011;52192;52.002;5.956;2023-01-08T12:57:59;0.55;;;0.40;;
39044;SDS011;52192;52.002;5.956;2023-01-08T13:00:39;0.85;;;0.80;;
39044;SDS011;52192;52.002;5.956;2023-01-08T13:03:13;0.65;;;0.40;;
39044;SDS011;52192;52.002;5.956;2023-01-08T13:05:47;0.77;;;0.40;;
39044;SDS011;52192;52.002;5.956;2023-01-08T13:08:32;0.40;;;0.40;;
39044;SDS011;52192;52.002;5.956;2023-01-08T13:11:00;1.20;;;0.40;;
39044;SDS011;52192;52.002;5.956;2023-01-08T13:13:33;0.45;;;0.40;;
39044;SDS011;52192;52.002;5.956;2023-01-08T13:18:58;0.85;;;0.47;;
39044;SDS011;52192;52.002;5.956;2023-01-08T13:21:35;0.40;;;0.30;;
39044;SDS011;52192;52.002;5.956;2023-01-08T13:26:55;0.82;;;0.35;;
39044;SDS011;52192;52.002;5.956;2023-01-08T13:29:37;0.63;;;0.47;;
39044;SDS011;52192;52.002;5.956;2023-01-08T13:32:21;3.80;;;0.77;;
39044;SDS011;52192;52.002;5.956;2023-01-08T13:48:25;2.05;;;0.70;;
39044;SDS011;52192;52.002;5.956;2023-01-08T13:50:56;3.15;;;0.40;;
39044;SDS011;52192;52.002;5.956;2023-01-08T13:53:22;0.55;;;0.55;;
39044;SDS011;52192;52.002;5.956;2023-01-08T13:55:55;0.95;;;0.47;;
39044;SDS011;52192;52.002;5.956;2023-01-08T13:58:28;0.47;;;0.35;;
39044;SDS011;52192;52.002;5.956;2023-01-08T14:00:57;3.05;;;0.65;;
39044;SDS011;52192;52.002;5.956;2023-01-08T14:03:26;0.43;;;0.43;;
39044;SDS011;52192;52.002;5.956;2023-01-08T14:08:31;1.17;;;0.77;;
39044;SDS011;52192;52.002;5.956;2023-01-08T14:10:57;0.38;;;0.38;;
39044;SDS011;52192;52.002;5.956;2023-01-08T14:13:27;1.20;;;0.40;;
39044;SDS011;52192;52.002;5.956;2023-01-08T14:18:23;0.50;;;0.50;;
39044;SDS011;52192;52.002;5.956;2023-01-08T14:20:50;3.90;;;0.93;;
39044;SDS011;52192;52.002;5.956;2023-01-08T14:23:27;1.23;;;0.65;;
39044;SDS011;52192;52.002;5.956;2023-01-08T14:28:26;3.03;;;0.88;;
39044;SDS011;52192;52.002;5.956;2023-01-08T14:30:55;1.85;;;0.88;;
39044;SDS011;52192;52.002;5.956;2023-01-08T14:33:29;0.38;;;0.38;;
39044;SDS011;52192;52.002;5.956;2023-01-08T14:35:58;0.85;;;0.50;;
39044;SDS011;52192;52.002;5.956;2023-01-08T14:38:26;0.93;;;0.60;;
39044;SDS011;52192;52.002;5.956;2023-01-08T14:41:08;0.85;;;0.60;;
39044;SDS011;52192;52.002;5.956;2023-01-08T14:43:54;0.95;;;0.85;;
39044;SDS011;52192;52.002;5.956;2023-01-08T14:46:21;3.40;;;0.85;;
39044;SDS011;52192;52.002;5.956;2023-01-08T14:48:51;0.57;;;0.50;;
39044;SDS011;52192;52.002;5.956;2023-01-08T14:51:22;2.47;;;1.00;;
39044;SDS011;52192;52.002;5.956;2023-01-08T14:53:51;0.30;;;0.30;;
39044;SDS011;52192;52.002;5.956;2023-01-08T14:56:21;3.15;;;0.40;;
39044;SDS011;52192;52.002;5.956;2023-01-08T14:58:50;0.40;;;0.40;;
39044;SDS011;52192;52.002;5.956;2023-01-08T15:01:20;1.77;;;0.75;;
39044;SDS011;52192;52.002;5.956;2023-01-08T15:03:49;1.20;;;0.60;;
39044;SDS011;52192;52.002;5.956;2023-01-08T15:06:26;0.60;;;0.35;;
39044;SDS011;52192;52.002;5.956;2023-01-08T15:08:53;1.17;;;0.68;;
39044;SDS011;52192;52.002;5.956;2023-01-08T15:11:26;3.28;;;0.52;;
39044;SDS011;52192;52.002;5.956;2023-01-08T15:13:54;3.58;;;0.85;;
39044;SDS011;52192;52.002;5.956;2023-01-08T15:21:45;0.50;;;0.50;;
39044;SDS011;52192;52.002;5.956;2023-01-08T15:24:21;3.22;;;1.05;;
39044;SDS011;52192;52.002;5.956;2023-01-08T15:26:50;0.85;;;0.73;;
39044;SDS011;52192;52.002;5.956;2023-01-08T15:29:18;0.30;;;0.30;;
39044;SDS011;52192;52.002;5.956;2023-01-08T15:31:47;0.35;;;0.30;;
39044;SDS011;52192;52.002;5.956;2023-01-08T15:34:14;2.25;;;0.57;;
39044;SDS011;52192;52.002;5.956;2023-01-08T15:36:44;1.70;;;0.63;;
39044;SDS011;52192;52.002;5.956;2023-01-08T15:39:10;1.10;;;0.73;;
39044;SDS011;52192;52.002;5.956;2023-01-08T15:41:36;4.45;;;1.15;;
39044;SDS011;52192;52.002;5.956;2023-01-08T15:44:42;0.73;;;0.63;;
39044;SDS011;52192;52.002;5.956;2023-01-08T15:47:08;0.77;;;0.55;;
39044;SDS011;52192;52.002;5.956;2023-01-08T15:49:33;0.50;;;0.30;;
39044;SDS011;52192;52.002;5.956;2023-01-08T15:51:59;0.88;;;0.70;;
39044;SDS011;52192;52.002;5.956;2023-01-08T15:54:25;1.80;;;0.88;;
39044;SDS011;52192;52.002;5.956;2023-01-08T15:56:51;1.05;;;0.68;;
39044;SDS011;52192;52.002;5.956;2023-01-08T15:59:16;0.95;;;0.70;;
39044;SDS011;52192;52.002;5.956;2023-01-08T16:01:42;1.27;;;0.80;;
39044;SDS011;52192;52.002;5.956;2023-01-08T16:04:08;0.50;;;0.50;;
39044;SDS011;52192;52.002;5.956;2023-01-08T16:06:33;3.55;;;0.50;;
39044;SDS011;52192;52.002;5.956;2023-01-08T16:09:00;0.65;;;0.57;;
39044;SDS011;52192;52.002;5.956;2023-01-08T16:11:26;1.33;;;0.50;;
39044;SDS011;52192;52.002;5.956;2023-01-08T16:13:52;0.80;;;0.70;;
39044;SDS011;52192;52.002;5.956;2023-01-08T16:16:18;2.28;;;0.65;;
39044;SDS011;52192;52.002;5.956;2023-01-08T16:18:46;2.28;;;1.00;;
39044;SDS011;52192;52.002;5.956;2023-01-08T16:21:19;0.40;;;0.40;;
39044;SDS011;52192;52.002;5.956;2023-01-08T16:23:45;1.95;;;0.73;;
39044;SDS011;52192;52.002;5.956;2023-01-08T16:26:11;1.63;;;0.63;;
39044;SDS011;52192;52.002;5.956;2023-01-08T16:28:38;0.50;;;0.50;;
39044;SDS011;52192;52.002;5.956;2023-01-08T16:31:05;2.33;;;0.73;;
39044;SDS011;52192;52.002;5.956;2023-01-08T16:33:31;1.35;;;0.95;;
39044;SDS011;52192;52.002;5.956;2023-01-08T16:35:58;1.35;;;0.60;;